createdAt,value
2023-03-26T00:01:30.182Z,6.30
2023-03-26T00:04:34.593Z,7.50
2023-03-26T00:07:37.658Z,6.40
2023-03-26T00:10:41.897Z,6.70
2023-03-26T00:13:46.835Z,6.20
2023-03-26T00:16:50.030Z,6.40
2023-03-26T00:19:53.681Z,6.40
2023-03-26T00:22:56.743Z,7.10
2023-03-26T00:26:00.891Z,4.80
2023-03-26T00:29:04.909Z,5.30
2023-03-26T00:32:08.014Z,5.80
2023-03-26T00:35:11.210Z,4.30
2023-03-26T00:38:14.904Z,6.00
2023-03-26T00:41:26.362Z,5.30
2023-03-26T00:44:29.768Z,3.00
2023-03-26T00:47:33.504Z,3.70
2023-03-26T00:50:36.549Z,7.40
2023-03-26T00:53:41.280Z,4.50
2023-03-26T00:56:44.794Z,3.30
2023-03-26T00:59:51.520Z,3.20
2023-03-26T01:02:55.906Z,3.40
2023-03-26T01:06:09.689Z,4.40
2023-03-26T01:09:17.292Z,6.40
2023-03-26T01:12:24.553Z,4.80
2023-03-26T01:15:30.152Z,4.10
2023-03-26T01:18:40.994Z,3.40
2023-03-26T01:21:44.146Z,5.20
2023-03-26T01:24:53.504Z,4.80
2023-03-26T01:27:57.224Z,3.80
2023-03-26T01:31:29.750Z,3.60
2023-03-26T01:34:41.966Z,3.80
2023-03-26T01:38:11.087Z,4.20
2023-03-26T01:41:22.688Z,3.80
2023-03-26T01:44:34.569Z,4.30
2023-03-26T01:47:41.192Z,4.90
2023-03-26T01:50:44.814Z,5.20
2023-03-26T01:53:48.517Z,4.00
2023-03-26T01:57:18.728Z,4.40
2023-03-26T02:00:26.039Z,4.00
2023-03-26T02:03:38.643Z,3.50
2023-03-26T02:06:51.781Z,3.90
2023-03-26T02:10:02.185Z,5.10
2023-03-26T02:13:06.172Z,4.90
2023-03-26T02:16:16.570Z,6.30
2023-03-26T02:19:21.738Z,3.80
2023-03-26T02:22:29.859Z,4.20
2023-03-26T02:25:35.301Z,5.20
2023-03-26T02:28:38.742Z,2.80
2023-03-26T02:31:43.575Z,3.10
2023-03-26T02:34:47.401Z,3.90
2023-03-26T02:37:51.054Z,3.20
2023-03-26T02:40:55.869Z,3.70
2023-03-26T02:44:01.145Z,3.10
2023-03-26T02:47:22.976Z,3.30
2023-03-26T02:50:32.559Z,3.80
2023-03-26T02:53:58.874Z,2.80
2023-03-26T02:57:07.872Z,2.50
2023-03-26T03:00:33.717Z,3.70
2023-03-26T03:03:55.225Z,4.30
2023-03-26T03:07:14.433Z,2.90
2023-03-26T03:10:21.928Z,3.20
2023-03-26T03:13:45.991Z,3.00
2023-03-26T03:16:53.994Z,5.00
2023-03-26T03:19:58.201Z,4.70
2023-03-26T03:23:01.791Z,6.30
2023-03-26T03:26:06.809Z,5.80
2023-03-26T03:29:10.727Z,3.60
2023-03-26T03:32:14.264Z,3.80
2023-03-26T03:35:21.208Z,3.00
2023-03-26T03:38:26.777Z,2.70
2023-03-26T03:41:30.350Z,3.60
2023-03-26T03:44:33.793Z,7.00
2023-03-26T03:47:37.131Z,4.20
2023-03-26T03:50:40.689Z,5.30
2023-03-26T03:53:57.561Z,6.10
2023-03-26T03:57:24.042Z,4.70
2023-03-26T04:04:03.977Z,4.20
2023-03-26T04:07:20.400Z,4.90
2023-03-26T04:10:38.122Z,3.70
2023-03-26T04:13:41.269Z,3.50
2023-03-26T04:17:14.075Z,3.00
2023-03-26T04:20:19.309Z,3.00
2023-03-26T04:23:23.404Z,3.10
2023-03-26T04:26:32.192Z,3.00
2023-03-26T04:29:43.983Z,4.90
2023-03-26T04:32:51.837Z,6.70
2023-03-26T04:35:56.923Z,5.00
2023-03-26T04:39:04.850Z,3.20
2023-03-26T04:42:28.761Z,3.80
2023-03-26T04:45:42.482Z,3.30
2023-03-26T04:48:45.897Z,5.30
2023-03-26T04:51:49.338Z,3.60
2023-03-26T04:55:24.918Z,4.50
2023-03-26T04:58:35.641Z,5.40
2023-03-26T05:01:40.257Z,3.60
2023-03-26T05:04:45.918Z,4.50
2023-03-26T05:07:49.546Z,4.00
2023-03-26T05:10:53.631Z,6.80
2023-03-26T05:14:04.448Z,5.00
2023-03-26T05:17:10.961Z,5.70
2023-03-26T05:20:21.011Z,4.70
2023-03-26T05:23:24.788Z,5.40
2023-03-26T05:26:34.741Z,7.00
2023-03-26T05:29:38.260Z,8.90
2023-03-26T05:32:41.615Z,6.40
2023-03-26T05:35:45.763Z,6.00
2023-03-26T05:38:49.972Z,6.30
2023-03-26T05:42:26.726Z,3.70
2023-03-26T05:45:48.278Z,6.20
2023-03-26T05:49:01.637Z,8.30
2023-03-26T05:52:07.704Z,9.00
2023-03-26T05:55:30.894Z,7.50
2023-03-26T05:58:52.597Z,5.90
2023-03-26T06:02:14.269Z,8.70
2023-03-26T06:05:37.463Z,6.70
2023-03-26T06:09:01.956Z,7.20
2023-03-26T06:12:07.941Z,21.70
2023-03-26T06:15:11.581Z,8.10
2023-03-26T06:18:23.537Z,7.40
2023-03-26T06:21:45.018Z,5.30
2023-03-26T06:24:56.291Z,4.80
2023-03-26T06:28:16.028Z,3.30
2023-03-26T06:31:36.083Z,4.00
2023-03-26T06:34:54.928Z,6.30
2023-03-26T06:37:58.911Z,5.50
2023-03-26T06:41:06.355Z,4.60
2023-03-26T06:44:28.977Z,4.90
2023-03-26T06:47:50.669Z,5.60
2023-03-26T06:51:12.180Z,4.60
2023-03-26T06:54:33.438Z,4.80
2023-03-26T06:57:51.452Z,7.00
2023-03-26T07:01:14.854Z,6.00
2023-03-26T07:04:36.272Z,5.30
2023-03-26T07:08:14.761Z,5.60
2023-03-26T07:11:53.049Z,4.60
2023-03-26T07:15:14.486Z,6.20
2023-03-26T07:18:40.128Z,6.00
2023-03-26T07:21:46.916Z,3.20
2023-03-26T07:25:19.473Z,4.80
2023-03-26T07:29:04.984Z,4.10
2023-03-26T07:32:43.433Z,4.20
2023-03-26T07:36:17.630Z,6.30
2023-03-26T07:39:42.713Z,4.40
2023-03-26T07:43:18.941Z,4.30
2023-03-26T07:46:41.546Z,8.30
2023-03-26T07:49:57.879Z,3.20
2023-03-26T07:53:22.574Z,2.70
2023-03-26T07:56:56.535Z,2.90
2023-03-26T08:00:30.670Z,3.30
2023-03-26T08:03:55.260Z,2.10
2023-03-26T08:07:30.548Z,3.20
2023-03-26T08:11:04.010Z,4.00
2023-03-26T08:14:28.682Z,3.40
2023-03-26T08:17:45.657Z,13.10
2023-03-26T08:21:14.241Z,13.20
2023-03-26T08:24:43.652Z,6.20
2023-03-26T08:28:09.986Z,6.80
2023-03-26T08:31:15.368Z,6.40
2023-03-26T08:34:18.490Z,11.00
2023-03-26T08:37:21.621Z,6.90
2023-03-26T08:41:00.885Z,4.50
2023-03-26T08:44:36.850Z,2.60
2023-03-26T08:48:10.654Z,3.00
2023-03-26T08:51:40.219Z,3.60
2023-03-26T08:54:56.851Z,5.20
2023-03-26T08:58:22.570Z,2.80
2023-03-26T09:01:49.510Z,3.40
2023-03-26T09:05:10.828Z,4.70
2023-03-26T09:08:53.730Z,4.20
2023-03-26T09:12:22.806Z,2.60
2023-03-26T09:15:51.205Z,5.00
2023-03-26T09:19:18.488Z,3.50
2023-03-26T09:22:39.602Z,4.20
2023-03-26T09:26:12.023Z,2.80
2023-03-26T09:29:32.797Z,3.10
2023-03-26T09:33:01.870Z,3.90
2023-03-26T09:36:17.572Z,3.90
2023-03-26T09:39:20.898Z,2.70
2023-03-26T09:42:26.614Z,2.70
2023-03-26T09:45:46.995Z,3.20
2023-03-26T09:49:07.385Z,7.00
2023-03-26T09:52:28.423Z,7.00
2023-03-26T09:55:44.879Z,4.00
2023-03-26T09:59:23.143Z,4.50
2023-03-26T10:03:19.920Z,4.20
2023-03-26T10:06:39.475Z,2.70
2023-03-26T10:10:23.847Z,2.30
2023-03-26T10:13:37.980Z,13.00
2023-03-26T10:16:46.956Z,5.70
2023-03-26T10:20:52.742Z,4.50
2023-03-26T10:29:59.765Z,3.90
2023-03-26T10:33:03.275Z,3.90
2023-03-26T10:36:27.715Z,5.70
2023-03-26T10:49:22.366Z,4.10
2023-03-26T10:57:44.994Z,3.50
2023-03-26T11:12:37.677Z,4.30
2023-03-26T11:16:01.334Z,8.20
2023-03-26T11:19:21.680Z,5.20
2023-03-26T11:22:34.725Z,4.50
2023-03-26T11:25:58.539Z,3.30
2023-03-26T11:29:32.904Z,4.30
2023-03-26T11:32:45.322Z,2.80
2023-03-26T11:36:02.425Z,3.00
2023-03-26T11:39:13.307Z,2.70
2023-03-26T11:42:18.089Z,3.00
2023-03-26T11:45:27.265Z,4.10
2023-03-26T11:48:43.822Z,2.30
2023-03-26T11:51:50.330Z,4.50
2023-03-26T11:54:59.112Z,3.90
2023-03-26T11:58:04.954Z,3.00
2023-03-26T12:01:29.719Z,4.50
2023-03-26T12:04:39.900Z,2.30
2023-03-26T12:07:59.504Z,3.20
2023-03-26T12:11:10.583Z,3.40
2023-03-26T12:14:22.732Z,3.50
2023-03-26T12:17:34.536Z,4.20
2023-03-26T12:20:38.310Z,3.80
2023-03-26T12:24:18.359Z,3.70
2023-03-26T12:27:28.140Z,4.70
2023-03-26T12:30:36.769Z,3.00
2023-03-26T12:33:39.882Z,4.30
2023-03-26T12:36:49.040Z,3.90
2023-03-26T12:40:24.870Z,6.70
2023-03-26T12:44:55.725Z,4.10
2023-03-26T12:47:59.881Z,5.10
2023-03-26T12:51:02.342Z,4.00
2023-03-26T12:54:22.959Z,3.80
2023-03-26T12:57:32.975Z,2.50
2023-03-26T13:01:06.055Z,4.30
2023-03-26T13:04:40.582Z,3.90
2023-03-26T13:08:16.235Z,4.80
2023-03-26T13:11:40.727Z,2.80
2023-03-26T13:14:55.750Z,2.80
2023-03-26T13:18:15.521Z,2.20
2023-03-26T13:21:36.860Z,3.10
2023-03-26T13:24:44.718Z,3.90
2023-03-26T13:28:01.280Z,4.20
2023-03-26T13:31:49.991Z,3.00
2023-03-26T13:35:08.083Z,2.70
2023-03-26T13:38:21.643Z,4.20
2023-03-26T13:41:35.634Z,3.00
2023-03-26T13:45:06.225Z,3.50
2023-03-26T13:48:19.710Z,4.40
2023-03-26T13:51:27.542Z,3.50
2023-03-26T13:54:29.338Z,3.00
2023-03-26T13:57:38.817Z,4.50
2023-03-26T14:00:58.949Z,5.20
2023-03-26T14:04:33.225Z,3.20
2023-03-26T14:07:44.198Z,6.00
2023-03-26T14:11:03.635Z,4.40
2023-03-26T14:14:11.803Z,4.60
2023-03-26T14:17:20.192Z,6.30
2023-03-26T14:20:44.036Z,6.40
2023-03-26T14:24:22.346Z,4.50
2023-03-26T14:27:56.200Z,8.80
2023-03-26T14:31:19.936Z,5.10
2023-03-26T14:34:22.874Z,6.30
2023-03-26T14:37:42.279Z,5.00
2023-03-26T14:41:22.982Z,7.30
2023-03-26T14:44:47.909Z,7.00
2023-03-26T15:11:05.513Z,4.20
2023-03-26T15:14:27.400Z,4.70
2023-03-26T15:18:18.640Z,6.50
2023-03-26T15:24:30.912Z,11.50
2023-03-26T15:28:30.126Z,7.90
2023-03-26T15:31:37.086Z,7.80
2023-03-26T15:35:30.162Z,10.90
2023-03-26T15:38:54.914Z,4.60
2023-03-26T15:42:04.106Z,6.90
2023-03-26T15:45:16.182Z,7.70
2023-03-26T15:49:02.583Z,4.70
2023-03-26T15:56:54.743Z,6.90
2023-03-26T16:00:26.034Z,9.70
2023-03-26T16:03:41.425Z,12.10
2023-03-26T16:07:05.604Z,8.90
2023-03-26T16:10:45.288Z,9.20
2023-03-26T16:14:10.354Z,10.00
2023-03-26T16:17:23.653Z,11.90
2023-03-26T16:20:51.038Z,10.20
2023-03-26T16:23:57.867Z,12.80
2023-03-26T16:27:10.931Z,11.30
2023-03-26T16:30:29.089Z,9.90
2023-03-26T16:33:50.682Z,11.10
2023-03-26T16:36:55.407Z,9.70
2023-03-26T16:44:37.598Z,11.00
2023-03-26T16:47:51.460Z,8.30
2023-03-26T16:51:03.864Z,9.60
2023-03-26T16:54:07.220Z,16.20
2023-03-26T16:57:25.092Z,19.10
2023-03-26T17:00:34.600Z,19.00
2023-03-26T17:03:50.009Z,15.90
2023-03-26T17:07:24.145Z,24.90
2023-03-26T17:10:33.108Z,27.20
2023-03-26T17:14:06.437Z,30.10
2023-03-26T17:17:23.634Z,26.10
2023-03-26T17:20:50.604Z,25.10
2023-03-26T17:23:59.730Z,21.90
2023-03-26T17:27:25.010Z,26.20
2023-03-26T17:30:50.549Z,29.60
2023-03-26T17:33:54.484Z,26.40
2023-03-26T17:37:04.265Z,27.90
2023-03-26T17:40:27.345Z,31.70
2023-03-26T17:43:36.508Z,27.90
2023-03-26T17:46:45.048Z,24.00
2023-03-26T17:49:54.025Z,18.70
2023-03-26T17:53:23.592Z,28.70
2023-03-26T17:56:32.209Z,33.20
2023-03-26T17:59:39.226Z,33.20
2023-03-26T18:02:49.769Z,35.00
2023-03-26T18:10:19.094Z,42.40
2023-03-26T18:14:07.032Z,34.90
2023-03-26T18:17:10.616Z,19.00
2023-03-26T18:20:24.493Z,19.00
2023-03-26T18:23:37.556Z,14.90
2023-03-26T18:27:06.423Z,14.40
2023-03-26T18:30:30.869Z,13.70
2023-03-26T18:33:47.821Z,10.60
2023-03-26T18:37:15.857Z,10.60
2023-03-26T18:40:24.503Z,12.00
2023-03-26T18:43:34.848Z,9.70
2023-03-26T18:51:06.884Z,10.40
2023-03-26T18:58:52.592Z,12.40
2023-03-26T19:03:03.454Z,13.40
2023-03-26T19:06:57.630Z,7.20
2023-03-26T19:26:15.573Z,8.10
2023-03-26T19:53:37.439Z,9.00
2023-03-26T19:56:40.690Z,9.30
2023-03-26T19:59:46.261Z,11.40
2023-03-26T20:02:54.184Z,12.10
2023-03-26T20:05:57.481Z,17.00
2023-03-26T20:09:01.364Z,14.20
2023-03-26T20:12:04.577Z,15.90
2023-03-26T20:15:19.486Z,13.10
2023-03-26T20:18:23.844Z,11.70
2023-03-26T20:21:39.224Z,11.60
2023-03-26T20:24:52.918Z,10.10
2023-03-26T20:27:56.637Z,10.80
2023-03-26T20:31:00.255Z,18.60
2023-03-26T20:34:03.536Z,18.30
2023-03-26T20:37:07.061Z,17.70
2023-03-26T20:40:12.336Z,23.00
2023-03-26T20:43:18.462Z,18.90
2023-03-26T20:46:31.255Z,17.90
2023-03-26T20:49:35.044Z,16.90
2023-03-26T20:52:38.083Z,21.80
2023-03-26T20:55:48.308Z,17.80
2023-03-26T20:59:03.643Z,14.80
2023-03-26T21:02:16.616Z,15.60
2023-03-26T21:05:25.022Z,11.60
2023-03-26T21:08:34.174Z,13.70
2023-03-26T21:12:01.892Z,12.90
2023-03-26T21:15:10.583Z,15.40
2023-03-26T21:18:20.250Z,15.50
2023-03-26T21:21:42.785Z,10.60
2023-03-26T21:28:42.409Z,14.70
2023-03-26T21:31:46.802Z,13.70
2023-03-26T21:34:58.566Z,12.00
2023-03-26T21:38:06.411Z,12.50
2023-03-26T21:41:24.368Z,11.50
2023-03-26T21:44:27.793Z,10.90
2023-03-26T21:47:31.316Z,10.60
2023-03-26T21:50:34.869Z,9.40
2023-03-26T21:53:38.382Z,7.90
2023-03-26T21:56:49.926Z,9.50
2023-03-26T22:00:18.242Z,9.30
2023-03-26T22:03:38.171Z,8.30
2023-03-26T22:06:48.025Z,7.70
2023-03-26T22:09:52.105Z,6.30
2023-03-26T22:12:55.549Z,7.80
2023-03-26T22:15:58.891Z,9.20
2023-03-26T22:19:02.067Z,9.00
2023-03-26T22:22:05.434Z,10.60
2023-03-26T22:25:10.425Z,11.20
2023-03-26T22:28:13.906Z,14.90
2023-03-26T22:31:17.668Z,12.90
2023-03-26T22:34:21.369Z,11.20
2023-03-26T22:37:25.944Z,10.90
2023-03-26T22:40:29.214Z,11.40
2023-03-26T22:43:32.541Z,11.30
2023-03-26T22:46:35.819Z,13.90
2023-03-26T22:49:40.030Z,10.80
2023-03-26T22:52:43.308Z,10.70
2023-03-26T22:55:46.560Z,9.30
2023-03-26T22:58:49.808Z,7.90
2023-03-26T23:01:53.317Z,11.10
2023-03-26T23:04:56.476Z,10.80
2023-03-26T23:08:00.409Z,10.60
2023-03-26T23:11:17.598Z,11.00
2023-03-26T23:14:21.830Z,10.70
2023-03-26T23:17:25.081Z,12.90
2023-03-26T23:20:29.228Z,13.70
2023-03-26T23:23:34.530Z,14.30
2023-03-26T23:26:49.571Z,13.90
2023-03-26T23:29:53.532Z,14.80
2023-03-26T23:32:57.462Z,15.50
2023-03-26T23:36:04.248Z,14.50
2023-03-26T23:39:10.989Z,16.50
2023-03-26T23:42:14.078Z,17.70
2023-03-26T23:45:17.444Z,19.50
2023-03-26T23:48:23.282Z,23.10
2023-03-26T23:51:26.511Z,17.70
2023-03-26T23:54:30.120Z,20.00
2023-03-26T23:57:33.180Z,22.20
